createdAt,value
2018-12-25T00:00:43.362Z,7.29
2018-12-25T00:01:43.049Z,7.29
2018-12-25T00:02:43.067Z,7.35
2018-12-25T00:03:43.340Z,7.29
2018-12-25T00:04:43.091Z,7.32
2018-12-25T00:05:43.631Z,7.25
2018-12-25T00:06:43.397Z,7.31
2018-12-25T00:07:43.677Z,7.29
2018-12-25T00:08:43.418Z,7.31
2018-12-25T00:09:43.453Z,7.32
2018-12-25T00:10:43.461Z,7.29
2018-12-25T00:11:43.488Z,7.31
2018-12-25T00:12:43.227Z,7.32
2018-12-25T00:13:43.514Z,7.33
2018-12-25T00:14:43.268Z,7.32
2018-12-25T00:15:43.551Z,7.36
2018-12-25T00:16:43.307Z,7.32
2018-12-25T00:17:43.330Z,7.31
2018-12-25T00:18:43.337Z,7.35
2018-12-25T00:19:43.369Z,7.25
2018-12-25T00:20:43.379Z,7.28
2018-12-25T00:21:43.392Z,7.31
2018-12-25T00:22:43.673Z,7.36
2018-12-25T00:23:43.427Z,7.31
2018-12-25T00:24:43.432Z,7.29
2018-12-25T00:25:43.723Z,7.29
2018-12-25T00:26:43.472Z,7.35
2018-12-25T00:27:43.764Z,7.31
2018-12-25T00:28:43.521Z,7.28
2018-12-25T00:29:43.533Z,7.25
2018-12-25T00:30:43.808Z,7.24
2018-12-25T00:31:43.821Z,7.35
2018-12-25T00:32:44.115Z,7.31
2018-12-25T00:33:43.601Z,7.28
2018-12-25T00:34:43.614Z,7.36
2018-12-25T00:35:43.979Z,7.33
2018-12-25T00:36:43.910Z,7.32
2018-12-25T00:37:43.918Z,7.29
2018-12-25T00:38:44.199Z,7.29
2018-12-25T00:39:43.966Z,7.29
2018-12-25T00:40:43.975Z,7.32
2018-12-25T00:41:43.741Z,7.33
2018-12-25T00:42:43.759Z,7.31
2018-12-25T00:43:44.036Z,7.29
2018-12-25T00:44:43.802Z,7.29
2018-12-25T00:45:43.811Z,7.38
2018-12-25T00:46:43.827Z,7.32
2018-12-25T00:47:44.117Z,7.29
2018-12-25T00:48:44.108Z,7.32
2018-12-25T00:49:44.138Z,7.29
2018-12-25T00:50:43.884Z,7.29
2018-12-25T00:51:44.181Z,7.29
2018-12-25T00:52:44.187Z,7.29
2018-12-25T00:53:44.472Z,7.31
2018-12-25T00:54:44.280Z,7.29
2018-12-25T00:55:43.971Z,7.31
2018-12-25T00:56:44.247Z,7.32
2018-12-25T00:57:44.026Z,7.29
2018-12-25T00:58:44.286Z,7.25
2018-12-25T00:59:44.057Z,7.32
2018-12-25T01:00:44.622Z,7.31
2018-12-25T01:01:44.089Z,7.31
2018-12-25T01:02:44.367Z,7.29
2018-12-25T01:03:44.116Z,7.32
2018-12-25T01:04:44.132Z,7.32
2018-12-25T01:05:44.150Z,7.38
2018-12-25T01:06:44.434Z,7.36
2018-12-25T01:07:44.450Z,7.28
2018-12-25T01:08:44.723Z,7.25
2018-12-25T01:09:44.483Z,7.31
2018-12-25T01:10:44.773Z,7.31
2018-12-25T01:11:44.776Z,7.29
2018-12-25T01:12:44.533Z,7.35
2018-12-25T01:13:44.544Z,7.28
2018-12-25T01:14:44.583Z,7.29
2018-12-25T01:15:44.837Z,7.29
2018-12-25T01:16:44.611Z,7.31
2018-12-25T01:17:44.473Z,7.32
2018-12-25T01:18:44.912Z,7.29
2018-12-25T01:19:44.400Z,7.29
2018-12-25T01:20:44.692Z,7.29
2018-12-25T01:21:44.425Z,7.31
2018-12-25T01:22:44.702Z,7.29
2018-12-25T01:23:44.482Z,7.32
2018-12-25T01:24:44.997Z,7.28
2018-12-25T01:25:44.774Z,7.38
2018-12-25T01:26:44.771Z,7.31
2018-12-25T01:27:44.798Z,7.32
2018-12-25T01:28:44.561Z,7.32
2018-12-25T01:29:44.843Z,7.25
2018-12-25T01:30:44.602Z,7.29
2018-12-25T01:31:44.599Z,7.32
2018-12-25T01:32:44.962Z,7.31
2018-12-25T01:33:44.900Z,7.32
2018-12-25T01:34:45.185Z,7.32
2018-12-25T01:35:44.953Z,7.28
2018-12-25T01:36:44.960Z,7.32
2018-12-25T01:37:44.715Z,7.33
2018-12-25T01:38:44.728Z,7.31
2018-12-25T01:39:45.028Z,7.33
2018-12-25T01:40:44.764Z,7.29
2018-12-25T01:41:45.371Z,7.32
2018-12-25T01:42:44.804Z,7.29
2018-12-25T01:43:45.083Z,7.32
2018-12-25T01:44:44.829Z,7.28
2018-12-25T01:45:45.384Z,7.25
2018-12-25T01:46:45.131Z,7.25
2018-12-25T01:47:45.148Z,7.29
2018-12-25T01:48:45.422Z,7.32
2018-12-25T01:49:45.168Z,7.24
2018-12-25T01:50:45.200Z,7.29
2018-12-25T01:51:44.955Z,7.28
2018-12-25T01:52:45.224Z,7.25
2018-12-25T01:53:45.260Z,7.32
2018-12-25T01:54:45.013Z,7.29
2018-12-25T01:55:45.024Z,7.29
2018-12-25T01:56:45.039Z,7.29
2018-12-25T01:57:45.317Z,7.28
2018-12-25T01:58:45.351Z,7.31
2018-12-25T01:59:45.080Z,7.32
2018-12-25T02:00:45.355Z,7.38
2018-12-25T02:01:45.125Z,7.32
2018-12-25T02:02:45.403Z,7.29
2018-12-25T02:03:45.165Z,7.35
2018-12-25T02:04:45.184Z,7.29
2018-12-25T02:05:45.444Z,7.35
2018-12-25T02:06:45.547Z,7.32
2018-12-25T02:07:45.495Z,7.28
2018-12-25T02:08:45.521Z,7.28
2018-12-25T02:09:45.522Z,7.29
2018-12-25T02:10:45.795Z,7.32
2018-12-25T02:11:45.298Z,7.33
2018-12-25T02:12:45.846Z,7.28
2018-12-25T02:13:45.647Z,7.35
2018-12-25T02:14:45.885Z,7.29
2018-12-25T02:15:45.900Z,7.33
2018-12-25T02:16:45.383Z,7.28
2018-12-25T02:17:45.397Z,7.25
2018-12-25T02:18:45.424Z,7.28
2018-12-25T02:19:45.942Z,7.29
2018-12-25T02:20:45.982Z,7.29
2018-12-25T02:21:45.467Z,7.29
2018-12-25T02:22:45.737Z,7.4
2018-12-25T02:23:45.781Z,7.31
2018-12-25T02:24:45.528Z,7.32
2018-12-25T02:25:45.544Z,7.33
2018-12-25T02:26:45.828Z,7.29
2018-12-25T02:27:45.837Z,7.31
2018-12-25T02:28:45.605Z,7.29
2018-12-25T02:29:45.867Z,7.33
2018-12-25T02:30:45.629Z,7.32
2018-12-25T02:31:45.675Z,7.31
2018-12-25T02:32:45.921Z,7.28
2018-12-25T02:33:45.963Z,7.31
2018-12-25T02:34:45.967Z,7.25
2018-12-25T02:35:45.990Z,7.28
2018-12-25T02:36:45.988Z,7.29
2018-12-25T02:37:46.001Z,7.29
2018-12-25T02:38:46.463Z,7.28
2018-12-25T02:39:45.781Z,7.29
2018-12-25T02:40:46.327Z,7.29
2018-12-25T02:41:46.066Z,7.29
2018-12-25T02:42:46.103Z,7.32
2018-12-25T02:43:46.370Z,7.32
2018-12-25T02:44:45.871Z,7.28
2018-12-25T02:45:46.145Z,7.29
2018-12-25T02:46:45.906Z,7.31
2018-12-25T02:47:45.918Z,7.32
2018-12-25T02:48:46.201Z,7.29
2018-12-25T02:49:54.715Z,7.32
2018-12-25T02:50:45.976Z,7.31
2018-12-25T02:51:45.993Z,7.29
2018-12-25T02:52:46.277Z,7.35
2018-12-25T02:53:46.273Z,7.28
2018-12-25T02:54:46.302Z,7.29
2018-12-25T02:55:46.582Z,7.32
2018-12-25T02:56:46.235Z,7.31
2018-12-25T02:57:46.108Z,7.32
2018-12-25T02:58:46.357Z,7.29
2018-12-25T02:59:46.381Z,7.31
2018-12-25T03:00:48.823Z,7.29
2018-12-25T03:01:46.413Z,7.31
2018-12-25T03:02:46.446Z,7.28
2018-12-25T03:03:46.734Z,7.32
2018-12-25T03:04:46.759Z,7.29
2018-12-25T03:05:46.498Z,7.29
2018-12-25T03:06:46.254Z,7.28
2018-12-25T03:07:46.254Z,7.31
2018-12-25T03:08:46.600Z,7.32
2018-12-25T03:09:46.565Z,7.32
2018-12-25T03:10:46.333Z,7.31
2018-12-25T03:11:46.616Z,7.29
2018-12-25T03:12:46.368Z,7.32
2018-12-25T03:13:46.627Z,7.31
2018-12-25T03:14:46.390Z,7.29
2018-12-25T03:15:46.664Z,7.33
2018-12-25T03:16:46.680Z,7.32
2018-12-25T03:17:46.697Z,7.29
2018-12-25T03:18:46.718Z,7.33
2018-12-25T03:19:46.480Z,7.32
2018-12-25T03:20:47.087Z,7.29
2018-12-25T03:21:46.762Z,7.31
2018-12-25T03:22:46.542Z,7.35
2018-12-25T03:23:46.802Z,7.31
2018-12-25T03:24:46.819Z,7.32
2018-12-25T03:25:47.087Z,7.25
2018-12-25T03:26:47.125Z,7.32
2018-12-25T03:27:47.223Z,7.29
2018-12-25T03:28:47.148Z,7.29
2018-12-25T03:29:46.915Z,7.28
2018-12-25T03:30:47.200Z,7.38
2018-12-25T03:31:47.359Z,7.32
2018-12-25T03:32:47.216Z,7.32
2018-12-25T03:33:46.974Z,7.32
2018-12-25T03:34:46.733Z,7.28
2018-12-25T03:35:47.038Z,7.29
2018-12-25T03:36:47.038Z,7.29
2018-12-25T03:37:47.349Z,7.25
2018-12-25T03:38:46.797Z,7.29
2018-12-25T03:39:47.085Z,7.28
2018-12-25T03:40:47.362Z,7.32
2018-12-25T03:41:47.370Z,7.29
2018-12-25T03:42:47.143Z,7.31
2018-12-25T03:43:47.148Z,7.31
2018-12-25T03:44:47.156Z,7.31
2018-12-25T03:45:46.922Z,7.33
2018-12-25T03:46:47.202Z,7.32
2018-12-25T03:47:46.965Z,7.32
2018-12-25T03:48:46.964Z,7.33
2018-12-25T03:49:47.258Z,7.32
2018-12-25T03:50:47.284Z,7.32
2018-12-25T03:51:47.294Z,7.31
2018-12-25T03:52:47.048Z,7.33
2018-12-25T03:53:47.315Z,7.32
2018-12-25T03:54:47.079Z,7.31
2018-12-25T03:55:47.366Z,7.29
2018-12-25T03:56:47.100Z,7.42
2018-12-25T03:57:47.132Z,7.31
2018-12-25T03:58:47.403Z,7.38
2018-12-25T03:59:47.426Z,7.32
2018-12-25T04:00:47.435Z,7.31
2018-12-25T04:01:47.467Z,7.32
2018-12-25T04:02:47.232Z,7.33
2018-12-25T04:03:47.250Z,7.29
2018-12-25T04:04:47.800Z,7.38
2018-12-25T04:05:47.554Z,7.32
2018-12-25T04:06:48.011Z,7.29
2018-12-25T04:07:47.572Z,7.29
2018-12-25T04:08:47.313Z,7.29
2018-12-25T04:09:47.592Z,7.33
2018-12-25T04:10:47.871Z,7.31
2018-12-25T04:11:47.642Z,7.28
2018-12-25T04:12:47.374Z,7.29
2018-12-25T04:13:47.398Z,7.29
2018-12-25T04:14:47.689Z,7.31
2018-12-25T04:15:47.958Z,7.32
2018-12-25T04:16:47.733Z,7.28
2018-12-25T04:17:47.477Z,7.31
2018-12-25T04:18:47.753Z,7.31
2018-12-25T04:19:48.018Z,7.31
2018-12-25T04:20:47.785Z,7.32
2018-12-25T04:21:47.527Z,7.29
2018-12-25T04:22:47.805Z,7.29
2018-12-25T04:23:47.591Z,7.31
2018-12-25T04:24:47.854Z,7.32
2018-12-25T04:25:47.610Z,7.36
2018-12-25T04:26:47.621Z,7.28
2018-12-25T04:27:47.916Z,7.32
2018-12-25T04:28:47.940Z,7.28
2018-12-25T04:29:47.938Z,7.38
2018-12-25T04:30:47.711Z,7.36
2018-12-25T04:31:47.985Z,7.32
2018-12-25T04:32:47.746Z,7.31
2018-12-25T04:33:48.011Z,7.29
2018-12-25T04:34:48.025Z,7.29
2018-12-25T04:35:48.061Z,7.31
2018-12-25T04:36:48.070Z,7.33
2018-12-25T04:37:48.085Z,7.31
2018-12-25T04:38:48.103Z,7.32
2018-12-25T04:39:48.110Z,7.25
2018-12-25T04:40:48.148Z,7.35
2018-12-25T04:41:48.405Z,7.36
2018-12-25T04:42:48.419Z,7.29
2018-12-25T04:43:48.194Z,7.33
2018-12-25T04:44:48.192Z,7.36
2018-12-25T04:45:48.219Z,7.29
2018-12-25T04:46:48.233Z,7.32
2018-12-25T04:47:48.265Z,7.32
2018-12-25T04:48:48.004Z,7.36
2018-12-25T04:49:48.291Z,7.33
2018-12-25T04:50:48.305Z,7.29
2018-12-25T04:51:48.060Z,7.29
2018-12-25T04:52:48.614Z,7.29
2018-12-25T04:53:48.369Z,7.32
2018-12-25T04:54:48.674Z,7.31
2018-12-25T04:55:48.124Z,7.32
2018-12-25T04:56:48.409Z,7.24
2018-12-25T04:57:48.433Z,7.29
2018-12-25T04:58:48.439Z,7.28
2018-12-25T04:59:48.446Z,7.32
2018-12-25T05:00:48.493Z,7.28
2018-12-25T05:01:48.507Z,7.29
2018-12-25T05:02:48.528Z,7.28
2018-12-25T05:03:48.267Z,7.29
2018-12-25T05:04:48.553Z,7.29
2018-12-25T05:05:48.555Z,7.25
2018-12-25T05:06:48.314Z,7.32
2018-12-25T05:07:48.603Z,7.29
2018-12-25T05:08:48.359Z,7.29
2018-12-25T05:09:48.636Z,7.29
2018-12-25T05:10:48.664Z,7.31
2018-12-25T05:11:48.422Z,7.32
2018-12-25T05:12:48.685Z,7.32
2018-12-25T05:13:48.438Z,7.28
2018-12-25T05:14:48.723Z,7.29
2018-12-25T05:15:48.737Z,7.32
2018-12-25T05:16:48.851Z,7.31
2018-12-25T05:17:48.779Z,7.31
2018-12-25T05:18:48.783Z,7.31
2018-12-25T05:19:49.124Z,7.32
2018-12-25T05:20:48.833Z,7.35
2018-12-25T05:21:48.830Z,7.29
2018-12-25T05:22:48.855Z,7.33
2018-12-25T05:23:48.870Z,7.28
2018-12-25T05:24:49.138Z,7.29
2018-12-25T05:25:48.646Z,7.29
2018-12-25T05:26:49.200Z,7.32
2018-12-25T05:27:49.186Z,7.32
2018-12-25T05:28:48.969Z,7.32
2018-12-25T05:29:50.707Z,7.28
2018-12-25T05:30:48.994Z,7.31
2018-12-25T05:31:49.002Z,7.31
2018-12-25T05:32:49.282Z,7.32
2018-12-25T05:33:49.049Z,7.28
2018-12-25T05:34:48.797Z,7.38
2018-12-25T05:35:49.074Z,7.28
2018-12-25T05:36:49.096Z,7.28
2018-12-25T05:37:49.121Z,7.31
2018-12-25T05:38:49.375Z,7.28
2018-12-25T05:39:49.163Z,7.28
2018-12-25T05:40:48.957Z,7.29
2018-12-25T05:41:49.187Z,7.24
2018-12-25T05:42:49.214Z,7.28
2018-12-25T05:43:49.227Z,7.29
2018-12-25T05:44:48.977Z,7.35
2018-12-25T05:45:49.264Z,7.32
2018-12-25T05:46:49.269Z,7.28
2018-12-25T05:47:49.547Z,7.31
2018-12-25T05:48:49.041Z,7.33
2018-12-25T05:49:49.322Z,7.29
2018-12-25T05:50:51.167Z,7.31
2018-12-25T05:51:49.095Z,7.31
2018-12-25T05:52:49.376Z,7.33
2018-12-25T05:53:49.120Z,7.4
2018-12-25T05:54:49.419Z,7.38
2018-12-25T05:55:49.169Z,7.33
2018-12-25T05:56:49.454Z,7.32
2018-12-25T05:57:49.457Z,7.33
2018-12-25T05:58:49.203Z,7.33
2018-12-25T05:59:49.487Z,7.45
2018-12-25T06:00:49.512Z,7.38
2018-12-25T06:01:49.515Z,7.32
2018-12-25T06:02:49.742Z,7.42
2018-12-25T06:03:49.575Z,7.4
2018-12-25T06:04:49.844Z,7.33
2018-12-25T06:05:49.588Z,7.39
2018-12-25T06:06:49.350Z,7.4
2018-12-25T06:07:49.899Z,7.36
2018-12-25T06:08:49.658Z,7.32
2018-12-25T06:09:49.937Z,7.33
2018-12-25T06:10:49.691Z,7.42
2018-12-25T06:11:49.706Z,7.38
2018-12-25T06:12:49.991Z,7.29
2018-12-25T06:13:49.998Z,7.36
2018-12-25T06:14:49.489Z,7.39
2018-12-25T06:15:50.040Z,7.31
2018-12-25T06:16:49.532Z,7.4
2018-12-25T06:17:49.812Z,7.33
2018-12-25T06:18:49.559Z,7.38
2018-12-25T06:19:49.577Z,7.35
2018-12-25T06:20:57.440Z,7.4
2018-12-25T06:21:49.619Z,7.36
2018-12-25T06:22:49.910Z,7.32
2018-12-25T06:23:49.651Z,7.38
2018-12-25T06:24:49.666Z,7.42
2018-12-25T06:25:49.944Z,7.42
2018-12-25T06:26:49.959Z,7.4
2018-12-25T06:27:49.969Z,7.35
2018-12-25T06:28:49.989Z,7.4
2018-12-25T06:29:49.766Z,7.5
2018-12-25T06:30:50.038Z,7.36
2018-12-25T06:31:50.054Z,7.36
2018-12-25T06:32:49.798Z,7.38
2018-12-25T06:33:50.090Z,7.38
2018-12-25T06:34:50.094Z,7.36
2018-12-25T06:35:50.369Z,7.31
2018-12-25T06:36:49.906Z,7.33
2018-12-25T06:37:50.150Z,7.38
2018-12-25T06:38:50.426Z,7.42
2018-12-25T06:39:49.926Z,7.42
2018-12-25T06:40:50.453Z,7.39
2018-12-25T06:41:50.220Z,7.39
2018-12-25T06:42:50.228Z,7.39
2018-12-25T06:43:50.252Z,7.39
2018-12-25T06:44:50.014Z,7.4
2018-12-25T06:45:50.301Z,7.39
2018-12-25T06:46:50.062Z,7.42
2018-12-25T06:47:50.578Z,7.38
2018-12-25T06:48:50.348Z,7.43
2018-12-25T06:49:50.631Z,7.42
2018-12-25T06:50:50.115Z,7.39
2018-12-25T06:51:50.404Z,7.35
2018-12-25T06:52:50.150Z,7.42
2018-12-25T06:53:50.167Z,7.35
2018-12-25T06:54:50.446Z,7.33
2018-12-25T06:55:50.722Z,7.39
2018-12-25T06:56:50.725Z,7.43
2018-12-25T06:57:50.498Z,7.42
2018-12-25T06:58:50.509Z,7.43
2018-12-25T06:59:50.268Z,7.4
2018-12-25T07:00:50.287Z,7.45
2018-12-25T07:01:50.307Z,7.4
2018-12-25T07:02:50.309Z,7.32
2018-12-25T07:03:50.347Z,7.35
2018-12-25T07:04:50.763Z,7.42
2018-12-25T07:05:50.892Z,7.42
2018-12-25T07:06:52.765Z,7.4
2018-12-25T07:07:50.402Z,7.38
2018-12-25T07:08:50.697Z,7.38
2018-12-25T07:09:50.707Z,7.39
2018-12-25T07:10:50.730Z,7.39
2018-12-25T07:11:50.763Z,7.4
2018-12-25T07:12:50.501Z,7.4
2018-12-25T07:13:50.774Z,7.28
2018-12-25T07:14:50.792Z,7.32
2018-12-25T07:15:50.538Z,7.32
2018-12-25T07:16:50.842Z,7.36
2018-12-25T07:17:50.849Z,7.31
2018-12-25T07:18:50.874Z,7.31
2018-12-25T07:19:50.621Z,7.42
2018-12-25T07:20:50.625Z,7.31
2018-12-25T07:21:50.914Z,7.32
2018-12-25T07:22:50.759Z,7.29
2018-12-25T07:23:50.950Z,7.35
2018-12-25T07:24:50.697Z,7.33
2018-12-25T07:25:51.231Z,7.28
2018-12-25T07:26:51.071Z,7.29
2018-12-25T07:27:51.029Z,7.29
2018-12-25T07:28:51.011Z,7.35
2018-12-25T07:29:52.827Z,7.32
2018-12-25T07:30:51.310Z,7.28
2018-12-25T07:31:51.075Z,7.35
2018-12-25T07:32:50.823Z,7.31
2018-12-25T07:33:50.857Z,7.32
2018-12-25T07:34:51.140Z,7.29
2018-12-25T07:35:50.885Z,7.31
2018-12-25T07:36:51.231Z,7.38
2018-12-25T07:37:50.934Z,7.29
2018-12-25T07:38:51.190Z,7.32
2018-12-25T07:39:50.948Z,7.29
2018-12-25T07:40:50.988Z,7.28
2018-12-25T07:41:50.989Z,7.31
2018-12-25T07:42:51.520Z,7.25
2018-12-25T07:43:51.288Z,7.31
2018-12-25T07:44:51.305Z,7.29
2018-12-25T07:45:51.322Z,7.31
2018-12-25T07:46:51.605Z,7.29
2018-12-25T07:47:51.370Z,7.32
2018-12-25T07:48:51.368Z,7.33
2018-12-25T07:49:51.194Z,7.32
2018-12-25T07:50:51.153Z,7.38
2018-12-25T07:51:51.430Z,7.38
2018-12-25T07:52:51.454Z,7.4
2018-12-25T07:53:51.458Z,7.28
2018-12-25T07:54:51.794Z,7.32
2018-12-25T07:55:51.476Z,7.28
2018-12-25T07:56:51.514Z,7.35
2018-12-25T07:57:51.259Z,7.32
2018-12-25T07:58:51.531Z,7.29
2018-12-25T07:59:51.566Z,7.32
2018-12-25T08:00:51.824Z,7.31
2018-12-25T08:01:51.676Z,7.38
2018-12-25T08:02:51.608Z,7.29
2018-12-25T08:03:51.881Z,7.31
2018-12-25T08:04:51.911Z,7.29
2018-12-25T08:05:53.452Z,7.43
2018-12-25T08:06:51.680Z,7.33
2018-12-25T08:07:51.431Z,7.42
2018-12-25T08:08:51.711Z,7.38
2018-12-25T08:09:51.509Z,7.36
2018-12-25T08:10:51.502Z,7.4
2018-12-25T08:11:51.525Z,7.36
2018-12-25T08:12:52.030Z,7.38
2018-12-25T08:13:52.049Z,7.45
2018-12-25T08:14:51.825Z,7.43
2018-12-25T08:15:52.103Z,7.38
2018-12-25T08:16:51.596Z,7.39
2018-12-25T08:17:51.601Z,7.4
2018-12-25T08:18:51.643Z,7.42
2018-12-25T08:19:51.918Z,7.42
2018-12-25T08:20:51.937Z,7.47
2018-12-25T08:21:51.681Z,7.51
2018-12-25T08:22:51.969Z,7.48
2018-12-25T08:23:51.961Z,7.48
2018-12-25T08:24:51.747Z,7.47
2018-12-25T08:25:51.749Z,7.42
2018-12-25T08:26:52.282Z,7.5
2018-12-25T08:27:51.790Z,7.4
2018-12-25T08:28:52.342Z,7.54
2018-12-25T08:29:52.345Z,7.45
2018-12-25T08:30:52.089Z,7.45
2018-12-25T08:31:51.850Z,7.5
2018-12-25T08:32:52.142Z,7.53
2018-12-25T08:33:51.887Z,7.51
2018-12-25T08:34:51.923Z,7.51
2018-12-25T08:35:52.182Z,7.53
2018-12-25T08:36:52.467Z,7.54
2018-12-25T08:37:52.046Z,7.57
2018-12-25T08:38:52.238Z,7.51
2018-12-25T08:39:51.989Z,7.53
2018-12-25T08:40:52.589Z,7.53
2018-12-25T08:41:53.681Z,7.53
2018-12-25T08:42:52.566Z,7.53
2018-12-25T08:43:52.315Z,7.53
2018-12-25T08:44:52.394Z,7.63
2018-12-25T08:45:52.371Z,7.6
2018-12-25T08:46:52.376Z,7.58
2018-12-25T08:47:52.378Z,7.58
2018-12-25T08:48:52.403Z,7.58
2018-12-25T08:49:52.540Z,7.6
2018-12-25T08:50:52.180Z,7.56
2018-12-25T08:51:52.706Z,7.54
2018-12-25T08:52:52.465Z,7.57
2018-12-25T08:53:52.504Z,7.63
2018-12-25T08:54:52.529Z,7.6
2018-12-25T08:55:52.528Z,7.63
2018-12-25T08:56:52.291Z,7.63
2018-12-25T08:57:52.306Z,7.58
2018-12-25T08:58:52.586Z,7.61
2018-12-25T08:59:52.622Z,7.66
2018-12-25T09:00:52.612Z,7.58
2018-12-25T09:01:52.638Z,7.6
2018-12-25T09:02:52.395Z,7.63
2018-12-25T09:03:52.658Z,7.6
2018-12-25T09:04:53.017Z,7.58
2018-12-25T09:05:52.443Z,7.61
2018-12-25T09:06:52.452Z,7.61
2018-12-25T09:07:52.478Z,7.72
2018-12-25T09:08:52.493Z,7.75
2018-12-25T09:09:52.837Z,7.66
2018-12-25T09:10:52.528Z,7.7
2018-12-25T09:11:52.539Z,7.61
2018-12-25T09:12:52.569Z,7.66
2018-12-25T09:13:52.846Z,7.73
2018-12-25T09:14:52.847Z,7.66
2018-12-25T09:15:52.888Z,7.61
2018-12-25T09:16:52.635Z,7.63
2018-12-25T09:17:52.649Z,7.7
2018-12-25T09:18:52.945Z,7.69
2018-12-25T09:19:53.207Z,7.75
2018-12-25T09:20:52.702Z,7.67
2018-12-25T09:21:52.721Z,7.73
2018-12-25T09:22:52.730Z,7.72
2018-12-25T09:23:52.756Z,7.72
2018-12-25T09:24:53.022Z,7.69
2018-12-25T09:25:53.044Z,7.79
2018-12-25T09:26:53.318Z,7.8
2018-12-25T09:27:53.083Z,7.8
2018-12-25T09:28:52.840Z,7.77
2018-12-25T09:29:53.173Z,7.85
2018-12-25T09:30:52.878Z,7.8
2018-12-25T09:31:52.894Z,7.77
2018-12-25T09:32:52.918Z,7.83
2018-12-25T09:33:53.195Z,7.85
2018-12-25T09:34:52.957Z,7.83
2018-12-25T09:35:53.223Z,7.83
2018-12-25T09:36:52.979Z,7.77
2018-12-25T09:37:52.997Z,7.83
2018-12-25T09:38:53.020Z,7.85
2018-12-25T09:39:53.025Z,7.9
2018-12-25T09:40:53.583Z,7.82
2018-12-25T09:41:53.068Z,7.88
2018-12-25T09:42:53.622Z,7.93
2018-12-25T09:43:53.110Z,7.82
2018-12-25T09:44:53.392Z,7.88
2018-12-25T09:45:53.390Z,7.91
2018-12-25T09:46:53.524Z,7.9
2018-12-25T09:47:53.428Z,7.88
2018-12-25T09:48:53.195Z,7.91
2018-12-25T09:49:53.477Z,7.87
2018-12-25T09:50:53.479Z,7.95
2018-12-25T09:51:58.945Z,8.01
2018-12-25T09:52:53.254Z,7.87
2018-12-25T09:53:53.546Z,7.97
2018-12-25T09:54:53.556Z,7.94
2018-12-25T09:55:53.571Z,7.93
2018-12-25T09:56:53.695Z,7.93
2018-12-25T09:57:53.613Z,8.06
2018-12-25T09:58:53.625Z,7.95
2018-12-25T09:59:53.915Z,7.97
2018-12-25T10:00:53.685Z,8
2018-12-25T10:01:53.766Z,7.98
2018-12-25T10:02:53.430Z,8.01
2018-12-25T10:03:53.717Z,8.08
2018-12-25T10:04:53.719Z,8.01
2018-12-25T10:05:53.735Z,7.98
2018-12-25T10:06:54.033Z,8.01
2018-12-25T10:07:53.766Z,8.01
2018-12-25T10:08:53.800Z,8.01
2018-12-25T10:09:53.552Z,7.98
2018-12-25T10:10:53.835Z,8.13
2018-12-25T10:11:53.839Z,8.09
2018-12-25T10:12:54.123Z,8
2018-12-25T10:13:53.883Z,8.1
2018-12-25T10:14:53.959Z,8.05
2018-12-25T10:15:53.671Z,8.08
2018-12-25T10:16:54.605Z,8.12
2018-12-25T10:17:53.939Z,8.1
2018-12-25T10:18:53.973Z,8.12
2018-12-25T10:19:53.744Z,8.1
2018-12-25T10:20:53.753Z,8.05
2018-12-25T10:21:54.285Z,8.12
2018-12-25T10:22:54.045Z,8.09
2018-12-25T10:23:54.315Z,8.16
2018-12-25T10:24:55.765Z,8.08
2018-12-25T10:25:56.057Z,8.08
2018-12-25T10:26:54.125Z,8.06
2018-12-25T10:27:54.379Z,8.12
2018-12-25T10:28:54.144Z,8.12
2018-12-25T10:29:54.156Z,8.1
2018-12-25T10:30:54.460Z,8.13
2018-12-25T10:31:54.456Z,8.16
2018-12-25T10:32:54.224Z,8.13
2018-12-25T10:33:54.220Z,8.13
2018-12-25T10:34:54.258Z,8.1
2018-12-25T10:35:54.277Z,8.12
2018-12-25T10:36:54.289Z,8.06
2018-12-25T10:37:54.043Z,8.1
2018-12-25T10:38:54.064Z,8.1
2018-12-25T10:39:54.347Z,8.12
2018-12-25T10:40:54.109Z,8.15
2018-12-25T10:41:54.120Z,8.08
2018-12-25T10:42:54.142Z,8.13
2018-12-25T10:43:54.668Z,8.12
2018-12-25T10:44:54.440Z,8.08
2018-12-25T10:45:54.191Z,8.08
2018-12-25T10:46:54.211Z,8.1
2018-12-25T10:47:54.486Z,8.08
2018-12-25T10:48:54.496Z,8.08
2018-12-25T10:49:54.504Z,8.15
2018-12-25T10:50:54.526Z,8.08
2018-12-25T10:51:54.551Z,8.16
2018-12-25T10:52:54.559Z,8.09
2018-12-25T10:53:54.576Z,8.1
2018-12-25T10:54:54.907Z,8.15
2018-12-25T10:55:54.618Z,8.15
2018-12-25T10:56:54.382Z,8.16
2018-12-25T10:57:54.663Z,8.2
2018-12-25T10:58:54.431Z,8.2
2018-12-25T10:59:54.962Z,8.15
2018-12-25T11:00:54.468Z,8.19
2018-12-25T11:01:54.735Z,8.15
2018-12-25T11:02:54.494Z,8.19
2018-12-25T11:03:55.045Z,8.15
2018-12-25T11:04:54.517Z,8.19
2018-12-25T11:05:54.794Z,8.27
2018-12-25T11:06:54.818Z,8.13
2018-12-25T11:07:54.841Z,8.24
2018-12-25T11:08:54.588Z,8.24
2018-12-25T11:09:54.597Z,8.23
2018-12-25T11:10:54.882Z,8.26
2018-12-25T11:11:54.883Z,8.28
2018-12-25T11:12:54.902Z,8.27
2018-12-25T11:13:54.939Z,8.31
2018-12-25T11:14:56.136Z,8.31
2018-12-25T11:15:54.981Z,8.31
2018-12-25T11:16:54.995Z,8.28
2018-12-25T11:17:55.006Z,8.3
2018-12-25T11:18:55.276Z,8.34
2018-12-25T11:19:55.037Z,8.31
2018-12-25T11:20:55.331Z,8.28
2018-12-25T11:21:55.206Z,8.27
2018-12-25T11:22:55.093Z,8.27
2018-12-25T11:23:55.368Z,8.38
2018-12-25T11:24:54.863Z,8.41
2018-12-25T11:25:55.138Z,8.37
2018-12-25T11:26:55.418Z,8.38
2018-12-25T11:27:55.173Z,8.38
2018-12-25T11:28:54.934Z,8.37
2018-12-25T11:29:54.948Z,8.37
2018-12-25T11:30:55.221Z,8.37
2018-12-25T11:31:55.527Z,8.37
2018-12-25T11:32:55.279Z,8.41
2018-12-25T11:33:55.270Z,8.38
2018-12-25T11:34:55.547Z,8.49
2018-12-25T11:35:55.639Z,8.49
2018-12-25T11:36:55.064Z,8.46
2018-12-25T11:37:55.375Z,8.49
2018-12-25T11:38:55.390Z,8.51
2018-12-25T11:39:55.128Z,8.45
2018-12-25T11:40:55.469Z,8.42
2018-12-25T11:41:55.167Z,8.49
2018-12-25T11:42:55.454Z,8.52
2018-12-25T11:43:55.461Z,8.44
2018-12-25T11:44:55.766Z,8.52
2018-12-25T11:45:55.493Z,8.44
2018-12-25T11:46:55.764Z,8.46
2018-12-25T11:47:55.268Z,8.52
2018-12-25T11:48:55.280Z,8.51
2018-12-25T11:49:55.296Z,8.48
2018-12-25T11:50:55.855Z,8.46
2018-12-25T11:51:55.335Z,8.46
2018-12-25T11:52:55.364Z,8.49
2018-12-25T11:53:55.892Z,8.46
2018-12-25T11:54:55.921Z,8.46
2018-12-25T11:55:55.742Z,8.45
2018-12-25T11:56:55.690Z,8.48
2018-12-25T11:57:55.450Z,8.51
2018-12-25T11:58:55.726Z,8.46
2018-12-25T11:59:55.743Z,8.45
2018-12-25T12:00:55.769Z,8.51
2018-12-25T12:01:55.519Z,8.48
2018-12-25T12:02:55.552Z,8.49
2018-12-25T12:03:56.084Z,8.58
2018-12-25T12:04:55.816Z,8.49
2018-12-25T12:05:55.587Z,8.58
2018-12-25T12:06:56.119Z,8.58
2018-12-25T12:07:55.889Z,8.46
2018-12-25T12:08:55.645Z,8.44
2018-12-25T12:09:55.927Z,8.48
2018-12-25T12:10:55.926Z,8.45
2018-12-25T12:11:55.689Z,8.48
2018-12-25T12:12:55.987Z,8.52
2018-12-25T12:13:55.971Z,8.55
2018-12-25T12:14:56.016Z,8.56
2018-12-25T12:15:55.767Z,8.52
2018-12-25T12:16:55.782Z,8.61
2018-12-25T12:17:56.064Z,8.53
2018-12-25T12:18:56.335Z,8.51
2018-12-25T12:19:55.833Z,8.52
2018-12-25T12:20:55.949Z,8.64
2018-12-25T12:21:55.864Z,8.64
2018-12-25T12:22:55.870Z,8.58
2018-12-25T12:23:56.170Z,8.56
2018-12-25T12:24:55.917Z,8.6
2018-12-25T12:25:56.209Z,8.67
2018-12-25T12:26:56.218Z,8.64
2018-12-25T12:27:55.987Z,8.64
2018-12-25T12:28:56.000Z,8.66
2018-12-25T12:29:56.538Z,8.63
2018-12-25T12:30:56.038Z,8.67
2018-12-25T12:31:56.311Z,8.69
2018-12-25T12:32:56.577Z,8.66
2018-12-25T12:33:56.346Z,8.67
2018-12-25T12:34:56.352Z,8.71
2018-12-25T12:35:56.117Z,8.74
2018-12-25T12:36:56.396Z,8.73
2018-12-25T12:37:56.169Z,8.73
2018-12-25T12:38:56.434Z,8.73
2018-12-25T12:39:56.457Z,8.61
2018-12-25T12:40:56.458Z,8.67
2018-12-25T12:41:56.218Z,8.85
2018-12-25T12:42:56.517Z,8.79
2018-12-25T12:43:56.796Z,8.81
2018-12-25T12:44:56.543Z,8.73
2018-12-25T12:45:56.554Z,8.71
2018-12-25T12:46:56.605Z,8.71
2018-12-25T12:47:56.339Z,8.76
2018-12-25T12:48:56.611Z,8.76
2018-12-25T12:49:56.354Z,8.78
2018-12-25T12:50:56.377Z,8.79
2018-12-25T12:51:56.662Z,8.78
2018-12-25T12:52:56.420Z,8.7
2018-12-25T12:53:56.708Z,8.76
2018-12-25T12:54:56.457Z,8.76
2018-12-25T12:55:56.993Z,8.79
2018-12-25T12:56:56.492Z,8.78
2018-12-25T12:57:56.765Z,8.73
2018-12-25T12:58:56.783Z,8.73
2018-12-25T12:59:56.542Z,8.74
2018-12-25T13:00:56.830Z,8.81
2018-12-25T13:01:57.096Z,8.81
2018-12-25T13:02:56.858Z,8.84
2018-12-25T13:03:57.126Z,8.85
2018-12-25T13:04:57.152Z,8.79
2018-12-25T13:05:56.645Z,8.79
2018-12-25T13:06:56.990Z,8.84
2018-12-25T13:07:56.957Z,8.85
2018-12-25T13:08:56.962Z,8.71
2018-12-25T13:09:56.971Z,8.79
2018-12-25T13:10:56.748Z,8.74
2018-12-25T13:11:56.872Z,8.74
2018-12-25T13:12:57.035Z,8.74
2018-12-25T13:13:56.792Z,8.84
2018-12-25T13:14:57.089Z,8.79
2018-12-25T13:15:56.817Z,8.76
2018-12-25T13:16:57.365Z,8.79
2018-12-25T13:17:56.870Z,8.74
2018-12-25T13:18:57.139Z,8.78
2018-12-25T13:19:57.412Z,8.73
2018-12-25T13:20:57.027Z,8.71